sensor_id;sensor_type;location;lat;lon;timestamp;P1;durP1;ratioP1;P2;durP2;ratioP2
14768;SDS011;7476;49.404;11.152;2023-04-16T00:00:06;8.90;;;8.00;;
14768;SDS011;7476;49.404;11.152;2023-04-16T00:02:33;9.47;;;8.10;;
14768;SDS011;7476;49.404;11.152;2023-04-16T00:05:01;8.13;;;7.33;;
14768;SDS011;7476;49.404;11.152;2023-04-16T00:07:28;9.83;;;8.63;;
14768;SDS011;7476;49.404;11.152;2023-04-16T00:09:55;9.43;;;8.43;;
14768;SDS011;7476;49.404;11.152;2023-04-16T00:12:21;9.10;;;8.20;;
14768;SDS011;7476;49.404;11.152;2023-04-16T00:14:48;9.27;;;7.73;;
14768;SDS011;7476;49.404;11.152;2023-04-16T00:17:15;8.87;;;7.93;;
14768;SDS011;7476;49.404;11.152;2023-04-16T00:19:41;9.00;;;7.63;;
14768;SDS011;7476;49.404;11.152;2023-04-16T00:22:09;8.50;;;7.60;;
14768;SDS011;7476;49.404;11.152;2023-04-16T00:24:36;9.33;;;8.43;;
14768;SDS011;7476;49.404;11.152;2023-04-16T00:27:03;9.80;;;8.57;;
14768;SDS011;7476;49.404;11.152;2023-04-16T00:29:29;9.20;;;8.20;;
14768;SDS011;7476;49.404;11.152;2023-04-16T00:31:57;9.10;;;8.10;;
14768;SDS011;7476;49.404;11.152;2023-04-16T00:34:24;9.37;;;8.37;;
14768;SDS011;7476;49.404;11.152;2023-04-16T00:36:51;9.03;;;8.00;;
14768;SDS011;7476;49.404;11.152;2023-04-16T00:39:19;9.40;;;8.23;;
14768;SDS011;7476;49.404;11.152;2023-04-16T00:41:45;9.73;;;8.33;;
14768;SDS011;7476;49.404;11.152;2023-04-16T00:44:13;10.33;;;8.33;;
14768;SDS011;7476;49.404;11.152;2023-04-16T00:46:39;10.40;;;8.43;;
14768;SDS011;7476;49.404;11.152;2023-04-16T00:49:07;9.77;;;8.30;;
14768;SDS011;7476;49.404;11.152;2023-04-16T00:51:35;9.50;;;8.50;;
14768;SDS011;7476;49.404;11.152;2023-04-16T00:54:02;9.00;;;8.03;;
14768;SDS011;7476;49.404;11.152;2023-04-16T00:56:30;11.60;;;9.70;;
14768;SDS011;7476;49.404;11.152;2023-04-16T00:58:58;9.13;;;8.17;;
14768;SDS011;7476;49.404;11.152;2023-04-16T01:01:24;10.10;;;8.63;;
14768;SDS011;7476;49.404;11.152;2023-04-16T01:03:51;10.20;;;9.07;;
14768;SDS011;7476;49.404;11.152;2023-04-16T01:06:18;10.83;;;7.70;;
14768;SDS011;7476;49.404;11.152;2023-04-16T01:08:45;10.83;;;8.70;;
14768;SDS011;7476;49.404;11.152;2023-04-16T01:11:13;10.17;;;8.77;;
14768;SDS011;7476;49.404;11.152;2023-04-16T01:13:41;10.20;;;8.70;;
14768;SDS011;7476;49.404;11.152;2023-04-16T01:16:09;10.53;;;8.70;;
14768;SDS011;7476;49.404;11.152;2023-04-16T01:18:36;10.80;;;9.47;;
14768;SDS011;7476;49.404;11.152;2023-04-16T01:21:05;9.87;;;8.53;;
14768;SDS011;7476;49.404;11.152;2023-04-16T01:23:32;10.30;;;8.70;;
14768;SDS011;7476;49.404;11.152;2023-04-16T01:25:59;10.33;;;8.53;;
14768;SDS011;7476;49.404;11.152;2023-04-16T01:28:25;10.30;;;8.63;;
14768;SDS011;7476;49.404;11.152;2023-04-16T01:30:52;10.93;;;8.97;;
14768;SDS011;7476;49.404;11.152;2023-04-16T01:33:19;11.00;;;8.43;;
14768;SDS011;7476;49.404;11.152;2023-04-16T01:35:46;9.60;;;8.50;;
14768;SDS011;7476;49.404;11.152;2023-04-16T01:38:14;9.67;;;8.37;;
14768;SDS011;7476;49.404;11.152;2023-04-16T01:40:41;8.17;;;7.33;;
14768;SDS011;7476;49.404;11.152;2023-04-16T01:43:08;10.33;;;8.57;;
14768;SDS011;7476;49.404;11.152;2023-04-16T01:45:35;10.27;;;8.33;;
14768;SDS011;7476;49.404;11.152;2023-04-16T01:48:02;9.23;;;8.17;;
14768;SDS011;7476;49.404;11.152;2023-04-16T01:50:29;9.23;;;7.27;;
14768;SDS011;7476;49.404;11.152;2023-04-16T01:52:56;9.83;;;8.17;;
14768;SDS011;7476;49.404;11.152;2023-04-16T01:55:24;9.27;;;7.87;;
14768;SDS011;7476;49.404;11.152;2023-04-16T01:57:51;9.27;;;8.07;;
14768;SDS011;7476;49.404;11.152;2023-04-16T02:00:17;9.77;;;8.23;;
14768;SDS011;7476;49.404;11.152;2023-04-16T02:02:44;9.27;;;7.77;;
14768;SDS011;7476;49.404;11.152;2023-04-16T02:05:11;8.30;;;7.37;;
14768;SDS011;7476;49.404;11.152;2023-04-16T02:07:38;9.00;;;7.53;;
14768;SDS011;7476;49.404;11.152;2023-04-16T02:10:05;9.50;;;7.67;;
14768;SDS011;7476;49.404;11.152;2023-04-16T02:12:35;9.00;;;7.73;;
14768;SDS011;7476;49.404;11.152;2023-04-16T02:15:02;8.60;;;7.47;;
14768;SDS011;7476;49.404;11.152;2023-04-16T02:17:29;9.30;;;7.73;;
14768;SDS011;7476;49.404;11.152;2023-04-16T02:19:56;9.13;;;8.10;;
14768;SDS011;7476;49.404;11.152;2023-04-16T02:22:22;8.83;;;7.43;;
14768;SDS011;7476;49.404;11.152;2023-04-16T02:24:49;9.47;;;7.93;;
14768;SDS011;7476;49.404;11.152;2023-04-16T02:27:16;10.23;;;8.23;;
14768;SDS011;7476;49.404;11.152;2023-04-16T02:29:44;9.53;;;7.97;;
14768;SDS011;7476;49.404;11.152;2023-04-16T02:32:10;9.60;;;8.07;;
14768;SDS011;7476;49.404;11.152;2023-04-16T02:34:37;10.17;;;8.07;;
14768;SDS011;7476;49.404;11.152;2023-04-16T02:37:04;9.70;;;8.30;;
14768;SDS011;7476;49.404;11.152;2023-04-16T02:39:30;9.87;;;8.00;;
14768;SDS011;7476;49.404;11.152;2023-04-16T02:41:57;10.30;;;8.50;;
14768;SDS011;7476;49.404;11.152;2023-04-16T02:44:26;9.47;;;8.07;;
14768;SDS011;7476;49.404;11.152;2023-04-16T02:46:54;10.20;;;8.97;;
14768;SDS011;7476;49.404;11.152;2023-04-16T02:49:21;9.23;;;7.87;;
14768;SDS011;7476;49.404;11.152;2023-04-16T02:51:47;10.33;;;8.43;;
14768;SDS011;7476;49.404;11.152;2023-04-16T02:54:14;10.00;;;7.73;;
14768;SDS011;7476;49.404;11.152;2023-04-16T02:56:40;9.40;;;7.57;;
14768;SDS011;7476;49.404;11.152;2023-04-16T02:59:07;10.57;;;8.33;;
14768;SDS011;7476;49.404;11.152;2023-04-16T03:01:34;9.40;;;7.50;;
14768;SDS011;7476;49.404;11.152;2023-04-16T03:04:02;11.07;;;8.73;;
14768;SDS011;7476;49.404;11.152;2023-04-16T03:06:28;9.60;;;8.43;;
14768;SDS011;7476;49.404;11.152;2023-04-16T03:08:55;11.03;;;8.73;;
14768;SDS011;7476;49.404;11.152;2023-04-16T03:11:22;9.40;;;7.77;;
14768;SDS011;7476;49.404;11.152;2023-04-16T03:13:49;10.57;;;8.37;;
14768;SDS011;7476;49.404;11.152;2023-04-16T03:16:16;9.50;;;7.77;;
14768;SDS011;7476;49.404;11.152;2023-04-16T03:18:42;9.37;;;7.60;;
14768;SDS011;7476;49.404;11.152;2023-04-16T03:21:10;9.43;;;7.07;;
14768;SDS011;7476;49.404;11.152;2023-04-16T03:23:37;10.13;;;8.17;;
14768;SDS011;7476;49.404;11.152;2023-04-16T03:26:03;9.20;;;8.03;;
14768;SDS011;7476;49.404;11.152;2023-04-16T03:28:30;9.67;;;7.97;;
14768;SDS011;7476;49.404;11.152;2023-04-16T03:30:57;9.27;;;7.90;;
14768;SDS011;7476;49.404;11.152;2023-04-16T03:33:23;10.07;;;8.00;;
14768;SDS011;7476;49.404;11.152;2023-04-16T03:35:54;11.47;;;8.70;;
14768;SDS011;7476;49.404;11.152;2023-04-16T03:38:23;9.77;;;7.73;;
14768;SDS011;7476;49.404;11.152;2023-04-16T03:40:50;10.53;;;7.87;;
14768;SDS011;7476;49.404;11.152;2023-04-16T03:43:17;9.50;;;7.63;;
14768;SDS011;7476;49.404;11.152;2023-04-16T03:45:44;10.80;;;8.67;;
14768;SDS011;7476;49.404;11.152;2023-04-16T03:48:10;11.03;;;7.77;;
14768;SDS011;7476;49.404;11.152;2023-04-16T03:50:37;11.17;;;7.90;;
14768;SDS011;7476;49.404;11.152;2023-04-16T03:53:04;10.80;;;8.33;;
14768;SDS011;7476;49.404;11.152;2023-04-16T03:55:32;11.77;;;8.40;;
14768;SDS011;7476;49.404;11.152;2023-04-16T03:57:59;10.73;;;8.63;;
14768;SDS011;7476;49.404;11.152;2023-04-16T04:00:27;10.73;;;8.27;;
14768;SDS011;7476;49.404;11.152;2023-04-16T04:02:53;10.50;;;7.90;;
14768;SDS011;7476;49.404;11.152;2023-04-16T04:05:20;11.63;;;8.33;;
14768;SDS011;7476;49.404;11.152;2023-04-16T04:07:47;10.67;;;8.17;;
14768;SDS011;7476;49.404;11.152;2023-04-16T04:10:14;10.57;;;8.07;;
14768;SDS011;7476;49.404;11.152;2023-04-16T04:12:42;9.63;;;7.80;;
14768;SDS011;7476;49.404;11.152;2023-04-16T04:15:09;9.33;;;7.43;;
14768;SDS011;7476;49.404;11.152;2023-04-16T04:17:36;9.90;;;7.53;;
14768;SDS011;7476;49.404;11.152;2023-04-16T04:20:03;9.60;;;7.80;;
14768;SDS011;7476;49.404;11.152;2023-04-16T04:22:31;10.07;;;7.57;;
14768;SDS011;7476;49.404;11.152;2023-04-16T04:24:57;10.43;;;7.97;;
14768;SDS011;7476;49.404;11.152;2023-04-16T04:27:24;9.67;;;7.03;;
14768;SDS011;7476;49.404;11.152;2023-04-16T04:29:52;9.93;;;7.27;;
14768;SDS011;7476;49.404;11.152;2023-04-16T04:32:19;9.97;;;7.70;;
14768;SDS011;7476;49.404;11.152;2023-04-16T04:34:45;12.43;;;8.67;;
14768;SDS011;7476;49.404;11.152;2023-04-16T04:37:12;11.43;;;7.90;;
14768;SDS011;7476;49.404;11.152;2023-04-16T04:39:38;11.37;;;8.27;;
14768;SDS011;7476;49.404;11.152;2023-04-16T04:42:05;9.93;;;8.03;;
14768;SDS011;7476;49.404;11.152;2023-04-16T04:44:32;10.73;;;8.00;;
14768;SDS011;7476;49.404;11.152;2023-04-16T04:47:00;10.03;;;8.07;;
14768;SDS011;7476;49.404;11.152;2023-04-16T04:49:26;10.80;;;7.83;;
14768;SDS011;7476;49.404;11.152;2023-04-16T04:51:54;10.17;;;8.13;;
14768;SDS011;7476;49.404;11.152;2023-04-16T04:54:21;9.87;;;7.73;;
14768;SDS011;7476;49.404;11.152;2023-04-16T04:56:47;10.40;;;7.43;;
14768;SDS011;7476;49.404;11.152;2023-04-16T04:59:16;11.90;;;8.47;;
14768;SDS011;7476;49.404;11.152;2023-04-16T05:01:43;11.23;;;8.73;;
14768;SDS011;7476;49.404;11.152;2023-04-16T05:04:11;9.77;;;7.53;;
14768;SDS011;7476;49.404;11.152;2023-04-16T05:06:37;11.07;;;8.33;;
14768;SDS011;7476;49.404;11.152;2023-04-16T05:09:04;11.67;;;8.10;;
14768;SDS011;7476;49.404;11.152;2023-04-16T05:11:35;10.93;;;8.43;;
14768;SDS011;7476;49.404;11.152;2023-04-16T05:14:02;11.13;;;7.80;;
14768;SDS011;7476;49.404;11.152;2023-04-16T05:16:28;11.57;;;7.87;;
14768;SDS011;7476;49.404;11.152;2023-04-16T05:18:55;10.33;;;7.93;;
14768;SDS011;7476;49.404;11.152;2023-04-16T05:21:23;11.90;;;8.80;;
14768;SDS011;7476;49.404;11.152;2023-04-16T05:23:51;13.63;;;8.73;;
14768;SDS011;7476;49.404;11.152;2023-04-16T05:26:17;11.63;;;8.83;;
14768;SDS011;7476;49.404;11.152;2023-04-16T05:28:44;12.80;;;8.87;;
14768;SDS011;7476;49.404;11.152;2023-04-16T05:31:11;10.77;;;7.93;;
14768;SDS011;7476;49.404;11.152;2023-04-16T05:33:38;12.00;;;7.97;;
14768;SDS011;7476;49.404;11.152;2023-04-16T05:36:04;11.27;;;8.43;;
14768;SDS011;7476;49.404;11.152;2023-04-16T05:38:33;10.33;;;8.07;;
14768;SDS011;7476;49.404;11.152;2023-04-16T05:40:59;9.93;;;7.87;;
14768;SDS011;7476;49.404;11.152;2023-04-16T05:43:26;10.47;;;7.83;;
14768;SDS011;7476;49.404;11.152;2023-04-16T05:45:53;11.67;;;8.30;;
14768;SDS011;7476;49.404;11.152;2023-04-16T05:48:19;15.10;;;8.90;;
14768;SDS011;7476;49.404;11.152;2023-04-16T05:50:46;11.43;;;8.67;;
14768;SDS011;7476;49.404;11.152;2023-04-16T05:53:12;11.77;;;8.87;;
14768;SDS011;7476;49.404;11.152;2023-04-16T05:55:40;11.50;;;8.33;;
14768;SDS011;7476;49.404;11.152;2023-04-16T05:58:07;10.70;;;8.20;;
14768;SDS011;7476;49.404;11.152;2023-04-16T06:00:33;10.67;;;8.07;;
14768;SDS011;7476;49.404;11.152;2023-04-16T06:03:00;9.57;;;7.67;;
14768;SDS011;7476;49.404;11.152;2023-04-16T06:05:27;13.53;;;8.07;;
14768;SDS011;7476;49.404;11.152;2023-04-16T06:07:54;10.03;;;7.47;;
14768;SDS011;7476;49.404;11.152;2023-04-16T06:10:21;8.60;;;6.97;;
14768;SDS011;7476;49.404;11.152;2023-04-16T06:12:49;10.17;;;7.63;;
14768;SDS011;7476;49.404;11.152;2023-04-16T06:15:16;9.30;;;7.77;;
14768;SDS011;7476;49.404;11.152;2023-04-16T06:17:42;9.27;;;7.37;;
14768;SDS011;7476;49.404;11.152;2023-04-16T06:20:10;10.90;;;8.57;;
14768;SDS011;7476;49.404;11.152;2023-04-16T06:22:37;9.77;;;7.87;;
14768;SDS011;7476;49.404;11.152;2023-04-16T06:25:04;9.60;;;7.37;;
14768;SDS011;7476;49.404;11.152;2023-04-16T06:27:31;8.33;;;7.17;;
14768;SDS011;7476;49.404;11.152;2023-04-16T06:29:59;9.63;;;7.07;;
14768;SDS011;7476;49.404;11.152;2023-04-16T06:32:26;9.43;;;7.27;;
14768;SDS011;7476;49.404;11.152;2023-04-16T06:34:52;8.07;;;6.10;;
14768;SDS011;7476;49.404;11.152;2023-04-16T06:37:20;8.30;;;6.27;;
14768;SDS011;7476;49.404;11.152;2023-04-16T06:39:46;7.83;;;6.07;;
14768;SDS011;7476;49.404;11.152;2023-04-16T06:42:13;7.27;;;5.30;;
14768;SDS011;7476;49.404;11.152;2023-04-16T06:44:40;8.47;;;6.57;;
14768;SDS011;7476;49.404;11.152;2023-04-16T06:47:08;8.67;;;6.10;;
14768;SDS011;7476;49.404;11.152;2023-04-16T06:49:34;7.20;;;5.60;;
14768;SDS011;7476;49.404;11.152;2023-04-16T06:52:01;6.10;;;5.43;;
14768;SDS011;7476;49.404;11.152;2023-04-16T06:54:28;6.80;;;5.20;;
14768;SDS011;7476;49.404;11.152;2023-04-16T06:56:55;7.47;;;5.67;;
14768;SDS011;7476;49.404;11.152;2023-04-16T06:59:21;7.33;;;5.53;;
14768;SDS011;7476;49.404;11.152;2023-04-16T07:01:48;6.47;;;5.37;;
14768;SDS011;7476;49.404;11.152;2023-04-16T07:04:16;7.07;;;5.73;;
14768;SDS011;7476;49.404;11.152;2023-04-16T07:06:43;6.70;;;5.57;;
14768;SDS011;7476;49.404;11.152;2023-04-16T07:09:10;6.60;;;5.17;;
14768;SDS011;7476;49.404;11.152;2023-04-16T07:11:36;6.90;;;4.97;;
14768;SDS011;7476;49.404;11.152;2023-04-16T07:14:03;6.17;;;5.20;;
14768;SDS011;7476;49.404;11.152;2023-04-16T07:16:30;5.87;;;5.20;;
14768;SDS011;7476;49.404;11.152;2023-04-16T07:18:57;5.83;;;5.00;;
14768;SDS011;7476;49.404;11.152;2023-04-16T07:21:25;6.13;;;5.23;;
14768;SDS011;7476;49.404;11.152;2023-04-16T07:23:52;6.73;;;5.40;;
14768;SDS011;7476;49.404;11.152;2023-04-16T07:26:18;7.80;;;5.00;;
14768;SDS011;7476;49.404;11.152;2023-04-16T07:28:45;5.80;;;4.83;;
14768;SDS011;7476;49.404;11.152;2023-04-16T07:31:12;6.00;;;4.70;;
14768;SDS011;7476;49.404;11.152;2023-04-16T07:33:38;5.43;;;4.83;;
14768;SDS011;7476;49.404;11.152;2023-04-16T07:36:05;6.03;;;4.83;;
14768;SDS011;7476;49.404;11.152;2023-04-16T07:38:33;4.43;;;3.97;;
14768;SDS011;7476;49.404;11.152;2023-04-16T07:41:00;5.37;;;4.60;;
14768;SDS011;7476;49.404;11.152;2023-04-16T07:43:27;4.43;;;4.03;;
14768;SDS011;7476;49.404;11.152;2023-04-16T07:45:53;5.17;;;4.40;;
14768;SDS011;7476;49.404;11.152;2023-04-16T07:48:20;4.73;;;4.27;;
14768;SDS011;7476;49.404;11.152;2023-04-16T07:50:47;4.83;;;3.93;;
14768;SDS011;7476;49.404;11.152;2023-04-16T07:53:14;4.20;;;3.80;;
14768;SDS011;7476;49.404;11.152;2023-04-16T07:55:42;3.73;;;3.27;;
14768;SDS011;7476;49.404;11.152;2023-04-16T07:58:08;4.03;;;3.40;;
14768;SDS011;7476;49.404;11.152;2023-04-16T08:00:35;3.43;;;3.13;;
14768;SDS011;7476;49.404;11.152;2023-04-16T08:03:02;3.67;;;3.33;;
14768;SDS011;7476;49.404;11.152;2023-04-16T08:05:29;3.40;;;3.10;;
14768;SDS011;7476;49.404;11.152;2023-04-16T08:07:55;3.03;;;2.73;;
14768;SDS011;7476;49.404;11.152;2023-04-16T08:10:22;3.53;;;2.97;;
14768;SDS011;7476;49.404;11.152;2023-04-16T08:12:50;2.90;;;2.60;;
14768;SDS011;7476;49.404;11.152;2023-04-16T08:15:17;3.13;;;2.43;;
14768;SDS011;7476;49.404;11.152;2023-04-16T08:17:43;2.80;;;2.60;;
14768;SDS011;7476;49.404;11.152;2023-04-16T08:20:10;2.40;;;2.20;;
14768;SDS011;7476;49.404;11.152;2023-04-16T08:22:37;2.03;;;1.83;;
14768;SDS011;7476;49.404;11.152;2023-04-16T08:25:04;2.63;;;2.13;;
14768;SDS011;7476;49.404;11.152;2023-04-16T08:27:31;2.40;;;2.20;;
14768;SDS011;7476;49.404;11.152;2023-04-16T08:29:59;2.10;;;1.90;;
14768;SDS011;7476;49.404;11.152;2023-04-16T08:32:26;2.30;;;2.10;;
14768;SDS011;7476;49.404;11.152;2023-04-16T08:34:53;1.67;;;1.57;;
14768;SDS011;7476;49.404;11.152;2023-04-16T08:37:19;2.10;;;1.90;;
14768;SDS011;7476;49.404;11.152;2023-04-16T08:39:46;2.10;;;2.00;;
14768;SDS011;7476;49.404;11.152;2023-04-16T08:42:17;2.00;;;1.90;;
14768;SDS011;7476;49.404;11.152;2023-04-16T08:44:48;1.57;;;1.47;;
14768;SDS011;7476;49.404;11.152;2023-04-16T08:47:24;1.60;;;1.50;;
14768;SDS011;7476;49.404;11.152;2023-04-16T08:49:51;1.60;;;1.50;;
14768;SDS011;7476;49.404;11.152;2023-04-16T08:52:23;2.27;;;1.47;;
14768;SDS011;7476;49.404;11.152;2023-04-16T08:54:55;1.50;;;1.40;;
14768;SDS011;7476;49.404;11.152;2023-04-16T08:57:28;1.40;;;1.30;;
14768;SDS011;7476;49.404;11.152;2023-04-16T09:00:02;1.50;;;1.40;;
14768;SDS011;7476;49.404;11.152;2023-04-16T09:02:30;1.30;;;1.20;;
14768;SDS011;7476;49.404;11.152;2023-04-16T09:04:58;1.50;;;1.40;;
14768;SDS011;7476;49.404;11.152;2023-04-16T09:07:25;1.53;;;1.43;;
14768;SDS011;7476;49.404;11.152;2023-04-16T09:09:53;1.20;;;1.10;;
14768;SDS011;7476;49.404;11.152;2023-04-16T09:12:21;1.67;;;1.20;;
14768;SDS011;7476;49.404;11.152;2023-04-16T09:14:48;1.90;;;1.13;;
14768;SDS011;7476;49.404;11.152;2023-04-16T09:17:15;1.10;;;1.00;;
14768;SDS011;7476;49.404;11.152;2023-04-16T09:19:44;1.17;;;1.03;;
14768;SDS011;7476;49.404;11.152;2023-04-16T09:22:10;1.10;;;1.00;;
14768;SDS011;7476;49.404;11.152;2023-04-16T09:24:37;0.93;;;0.93;;
14768;SDS011;7476;49.404;11.152;2023-04-16T09:27:04;0.97;;;0.93;;
14768;SDS011;7476;49.404;11.152;2023-04-16T09:29:33;0.90;;;0.90;;
14768;SDS011;7476;49.404;11.152;2023-04-16T09:32:01;1.33;;;1.00;;
14768;SDS011;7476;49.404;11.152;2023-04-16T09:34:29;1.03;;;0.93;;
14768;SDS011;7476;49.404;11.152;2023-04-16T09:37:02;1.00;;;0.90;;
14768;SDS011;7476;49.404;11.152;2023-04-16T09:39:41;1.43;;;1.03;;
14768;SDS011;7476;49.404;11.152;2023-04-16T09:42:08;1.00;;;1.00;;
14768;SDS011;7476;49.404;11.152;2023-04-16T09:44:34;1.20;;;1.10;;
14768;SDS011;7476;49.404;11.152;2023-04-16T09:47:04;1.10;;;1.07;;
14768;SDS011;7476;49.404;11.152;2023-04-16T09:49:32;1.13;;;1.10;;
14768;SDS011;7476;49.404;11.152;2023-04-16T09:52:00;2.00;;;1.77;;
14768;SDS011;7476;49.404;11.152;2023-04-16T09:54:28;1.20;;;1.10;;
14768;SDS011;7476;49.404;11.152;2023-04-16T09:56:55;1.03;;;1.00;;
14768;SDS011;7476;49.404;11.152;2023-04-16T09:59:22;1.07;;;0.97;;
14768;SDS011;7476;49.404;11.152;2023-04-16T10:01:49;1.20;;;1.10;;
14768;SDS011;7476;49.404;11.152;2023-04-16T10:04:17;0.90;;;0.90;;
14768;SDS011;7476;49.404;11.152;2023-04-16T10:06:44;0.90;;;0.90;;
14768;SDS011;7476;49.404;11.152;2023-04-16T10:09:29;1.10;;;1.00;;
14768;SDS011;7476;49.404;11.152;2023-04-16T10:11:57;1.20;;;1.10;;
14768;SDS011;7476;49.404;11.152;2023-04-16T10:14:24;1.17;;;1.00;;
14768;SDS011;7476;49.404;11.152;2023-04-16T10:16:51;1.10;;;1.00;;
14768;SDS011;7476;49.404;11.152;2023-04-16T10:19:18;1.27;;;1.00;;
14768;SDS011;7476;49.404;11.152;2023-04-16T10:21:46;1.87;;;0.90;;
14768;SDS011;7476;49.404;11.152;2023-04-16T10:24:13;1.03;;;1.00;;
14768;SDS011;7476;49.404;11.152;2023-04-16T10:26:43;1.20;;;1.10;;
14768;SDS011;7476;49.404;11.152;2023-04-16T10:29:10;1.10;;;1.10;;
14768;SDS011;7476;49.404;11.152;2023-04-16T10:31:37;1.13;;;1.07;;
14768;SDS011;7476;49.404;11.152;2023-04-16T10:34:06;3.47;;;2.50;;
14768;SDS011;7476;49.404;11.152;2023-04-16T10:36:35;1.30;;;1.20;;
14768;SDS011;7476;49.404;11.152;2023-04-16T10:39:02;1.23;;;1.13;;
14768;SDS011;7476;49.404;11.152;2023-04-16T10:41:31;1.17;;;1.07;;
14768;SDS011;7476;49.404;11.152;2023-04-16T10:44:03;1.20;;;1.10;;
14768;SDS011;7476;49.404;11.152;2023-04-16T10:46:35;1.30;;;1.10;;
14768;SDS011;7476;49.404;11.152;2023-04-16T10:49:11;1.10;;;1.10;;
14768;SDS011;7476;49.404;11.152;2023-04-16T10:51:39;1.13;;;1.10;;
14768;SDS011;7476;49.404;11.152;2023-04-16T10:54:18;2.50;;;1.30;;
14768;SDS011;7476;49.404;11.152;2023-04-16T10:56:46;1.17;;;1.10;;
14768;SDS011;7476;49.404;11.152;2023-04-16T10:59:16;1.33;;;1.20;;
14768;SDS011;7476;49.404;11.152;2023-04-16T11:01:44;1.40;;;1.20;;
14768;SDS011;7476;49.404;11.152;2023-04-16T11:04:25;1.13;;;1.03;;
14768;SDS011;7476;49.404;11.152;2023-04-16T11:06:59;1.10;;;1.00;;
14768;SDS011;7476;49.404;11.152;2023-04-16T11:12:23;1.10;;;1.00;;
14768;SDS011;7476;49.404;11.152;2023-04-16T11:14:57;1.23;;;1.13;;
14768;SDS011;7476;49.404;11.152;2023-04-16T11:17:27;1.50;;;1.40;;
14768;SDS011;7476;49.404;11.152;2023-04-16T11:19:54;1.43;;;1.33;;
14768;SDS011;7476;49.404;11.152;2023-04-16T11:22:21;1.63;;;1.37;;
14768;SDS011;7476;49.404;11.152;2023-04-16T11:24:52;1.20;;;1.10;;
14768;SDS011;7476;49.404;11.152;2023-04-16T11:27:19;1.30;;;1.20;;
14768;SDS011;7476;49.404;11.152;2023-04-16T11:29:53;1.83;;;1.20;;
14768;SDS011;7476;49.404;11.152;2023-04-16T11:32:22;1.20;;;1.10;;
14768;SDS011;7476;49.404;11.152;2023-04-16T11:34:49;1.43;;;1.33;;
14768;SDS011;7476;49.404;11.152;2023-04-16T11:37:18;1.20;;;1.10;;
14768;SDS011;7476;49.404;11.152;2023-04-16T11:39:49;1.00;;;1.00;;
14768;SDS011;7476;49.404;11.152;2023-04-16T11:42:19;1.30;;;1.13;;
14768;SDS011;7476;49.404;11.152;2023-04-16T11:44:50;1.40;;;1.30;;
14768;SDS011;7476;49.404;11.152;2023-04-16T11:47:19;1.77;;;1.10;;
14768;SDS011;7476;49.404;11.152;2023-04-16T11:49:47;1.20;;;1.10;;
14768;SDS011;7476;49.404;11.152;2023-04-16T11:52:14;1.33;;;1.23;;
14768;SDS011;7476;49.404;11.152;2023-04-16T11:54:52;3.03;;;1.10;;
14768;SDS011;7476;49.404;11.152;2023-04-16T11:57:25;1.30;;;1.20;;
14768;SDS011;7476;49.404;11.152;2023-04-16T11:59:52;1.30;;;1.20;;
14768;SDS011;7476;49.404;11.152;2023-04-16T12:02:34;0.90;;;0.90;;
14768;SDS011;7476;49.404;11.152;2023-04-16T12:05:05;1.17;;;1.07;;
14768;SDS011;7476;49.404;11.152;2023-04-16T12:07:42;1.53;;;1.20;;
14768;SDS011;7476;49.404;11.152;2023-04-16T12:10:09;2.07;;;1.50;;
14768;SDS011;7476;49.404;11.152;2023-04-16T12:12:36;2.30;;;1.30;;
14768;SDS011;7476;49.404;11.152;2023-04-16T12:15:03;1.87;;;1.40;;
14768;SDS011;7476;49.404;11.152;2023-04-16T12:17:30;1.30;;;1.20;;
14768;SDS011;7476;49.404;11.152;2023-04-16T12:20:00;1.57;;;1.20;;
14768;SDS011;7476;49.404;11.152;2023-04-16T12:22:31;1.40;;;1.30;;
14768;SDS011;7476;49.404;11.152;2023-04-16T12:24:59;1.47;;;1.37;;
14768;SDS011;7476;49.404;11.152;2023-04-16T12:27:39;1.47;;;1.37;;
14768;SDS011;7476;49.404;11.152;2023-04-16T12:30:07;1.30;;;1.20;;
14768;SDS011;7476;49.404;11.152;2023-04-16T12:32:34;1.30;;;1.20;;
14768;SDS011;7476;49.404;11.152;2023-04-16T12:35:02;2.00;;;1.10;;
14768;SDS011;7476;49.404;11.152;2023-04-16T12:37:30;1.20;;;1.10;;
14768;SDS011;7476;49.404;11.152;2023-04-16T12:39:56;1.30;;;1.20;;
14768;SDS011;7476;49.404;11.152;2023-04-16T12:42:23;1.30;;;1.20;;
14768;SDS011;7476;49.404;11.152;2023-04-16T12:44:50;2.43;;;1.30;;
14768;SDS011;7476;49.404;11.152;2023-04-16T12:47:16;1.30;;;1.20;;
14768;SDS011;7476;49.404;11.152;2023-04-16T12:49:43;1.27;;;1.10;;
14768;SDS011;7476;49.404;11.152;2023-04-16T12:52:11;1.40;;;1.30;;
14768;SDS011;7476;49.404;11.152;2023-04-16T12:54:37;1.30;;;1.20;;
14768;SDS011;7476;49.404;11.152;2023-04-16T12:57:05;2.30;;;1.40;;
14768;SDS011;7476;49.404;11.152;2023-04-16T12:59:31;1.33;;;1.23;;
14768;SDS011;7476;49.404;11.152;2023-04-16T13:01:59;2.63;;;1.30;;
14768;SDS011;7476;49.404;11.152;2023-04-16T13:04:26;1.30;;;1.20;;
14768;SDS011;7476;49.404;11.152;2023-04-16T13:06:52;1.30;;;1.20;;
14768;SDS011;7476;49.404;11.152;2023-04-16T13:09:20;1.37;;;1.27;;
14768;SDS011;7476;49.404;11.152;2023-04-16T13:11:47;1.30;;;1.20;;
14768;SDS011;7476;49.404;11.152;2023-04-16T13:14:14;2.50;;;1.43;;
14768;SDS011;7476;49.404;11.152;2023-04-16T13:16:40;1.33;;;1.23;;
14768;SDS011;7476;49.404;11.152;2023-04-16T13:19:07;1.23;;;1.13;;
14768;SDS011;7476;49.404;11.152;2023-04-16T13:21:34;1.40;;;1.30;;
14768;SDS011;7476;49.404;11.152;2023-04-16T13:24:00;1.30;;;1.20;;
14768;SDS011;7476;49.404;11.152;2023-04-16T13:26:28;1.30;;;1.20;;
14768;SDS011;7476;49.404;11.152;2023-04-16T13:28:55;1.57;;;1.27;;
14768;SDS011;7476;49.404;11.152;2023-04-16T13:31:22;1.63;;;1.30;;
14768;SDS011;7476;49.404;11.152;2023-04-16T13:33:48;1.30;;;1.20;;
14768;SDS011;7476;49.404;11.152;2023-04-16T13:36:15;1.20;;;1.10;;
14768;SDS011;7476;49.404;11.152;2023-04-16T13:38:42;1.87;;;1.20;;
14768;SDS011;7476;49.404;11.152;2023-04-16T13:41:09;1.37;;;1.27;;
14768;SDS011;7476;49.404;11.152;2023-04-16T13:43:37;1.50;;;1.40;;
14768;SDS011;7476;49.404;11.152;2023-04-16T13:46:04;1.50;;;1.40;;
14768;SDS011;7476;49.404;11.152;2023-04-16T13:48:31;1.50;;;1.40;;
14768;SDS011;7476;49.404;11.152;2023-04-16T13:50:57;1.30;;;1.20;;
14768;SDS011;7476;49.404;11.152;2023-04-16T13:53:24;1.40;;;1.30;;
14768;SDS011;7476;49.404;11.152;2023-04-16T13:55:51;1.50;;;1.40;;
14768;SDS011;7476;49.404;11.152;2023-04-16T13:58:17;1.30;;;1.20;;
14768;SDS011;7476;49.404;11.152;2023-04-16T14:00:46;1.70;;;1.60;;
14768;SDS011;7476;49.404;11.152;2023-04-16T14:03:12;1.50;;;1.40;;
14768;SDS011;7476;49.404;11.152;2023-04-16T14:05:39;1.90;;;1.40;;
14768;SDS011;7476;49.404;11.152;2023-04-16T14:08:07;1.53;;;1.43;;
14768;SDS011;7476;49.404;11.152;2023-04-16T14:10:34;1.83;;;1.67;;
14768;SDS011;7476;49.404;11.152;2023-04-16T14:13:00;1.60;;;1.50;;
14768;SDS011;7476;49.404;11.152;2023-04-16T14:15:27;1.60;;;1.50;;
14768;SDS011;7476;49.404;11.152;2023-04-16T14:17:55;1.77;;;1.60;;
14768;SDS011;7476;49.404;11.152;2023-04-16T14:20:22;1.37;;;1.27;;
14768;SDS011;7476;49.404;11.152;2023-04-16T14:22:49;1.50;;;1.40;;
14768;SDS011;7476;49.404;11.152;2023-04-16T14:25:15;2.17;;;1.40;;
14768;SDS011;7476;49.404;11.152;2023-04-16T14:27:42;1.40;;;1.30;;
14768;SDS011;7476;49.404;11.152;2023-04-16T14:30:09;1.50;;;1.40;;
14768;SDS011;7476;49.404;11.152;2023-04-16T14:32:36;1.50;;;1.40;;
14768;SDS011;7476;49.404;11.152;2023-04-16T14:35:04;1.63;;;1.53;;
14768;SDS011;7476;49.404;11.152;2023-04-16T14:37:32;1.40;;;1.30;;
14768;SDS011;7476;49.404;11.152;2023-04-16T14:39:59;1.63;;;1.53;;
14768;SDS011;7476;49.404;11.152;2023-04-16T14:42:27;2.07;;;1.80;;
14768;SDS011;7476;49.404;11.152;2023-04-16T14:44:53;2.23;;;1.60;;
14768;SDS011;7476;49.404;11.152;2023-04-16T14:47:20;1.63;;;1.53;;
14768;SDS011;7476;49.404;11.152;2023-04-16T14:49:46;2.47;;;1.50;;